sensor_id;sensor_type;location;lat;lon;timestamp;P1;P4;P2;P0;N10;N4;N25;N1;N05;TS
84733;SPS30;74957;48.082;17.260;2024-02-04T00:00:54;4.521;;4.019;4.019;;;;;;
84733;SPS30;74957;48.082;17.260;2024-02-04T00:05:56;3.2;;2.845;2.672;;;;;;
84733;SPS30;74957;48.082;17.260;2024-02-04T00:10:54;3.519;;3.128;3.128;;;;;;
84733;SPS30;74957;48.082;17.260;2024-02-04T00:15:59;4.174;;3.711;3.538;;;;;;
84733;SPS30;74957;48.082;17.260;2024-02-04T00:20:59;4.699;;4.177;3.658;;;;;;
84733;SPS30;74957;48.082;17.260;2024-02-04T00:25:56;4.038;;3.59;3.417;;;;;;
84733;SPS30;74957;48.082;17.260;2024-02-04T00:31:00;5.014;;4.457;4.284;;;;;;
84733;SPS30;74957;48.082;17.260;2024-02-04T00:35:57;3.031;;2.695;2.695;;;;;;
84733;SPS30;74957;48.082;17.260;2024-02-04T00:40:58;5.518;;4.905;4.212;;;;;;
84733;SPS30;74957;48.082;17.260;2024-02-04T00:46:01;4.808;;4.274;3.755;;;;;;
84733;SPS30;74957;48.082;17.260;2024-02-04T00:50:58;5.361;;4.766;4.766;;;;;;
84733;SPS30;74957;48.082;17.260;2024-02-04T00:56:00;6.702;;5.958;5.439;;;;;;
84733;SPS30;74957;48.082;17.260;2024-02-04T01:01:01;4.396;;3.908;3.562;;;;;;
84733;SPS30;74957;48.082;17.260;2024-02-04T01:05:59;5.058;;4.496;3.803;;;;;;
84733;SPS30;74957;48.082;17.260;2024-02-04T01:10:58;4.174;;3.711;3.538;;;;;;
84733;SPS30;74957;48.082;17.260;2024-02-04T01:15:58;4.362;;3.878;2.839;;;;;;
84733;SPS30;74957;48.082;17.260;2024-02-04T01:20:59;5.475;;4.867;4.694;;;;;;
84733;SPS30;74957;48.082;17.260;2024-02-04T01:25:59;5.058;;4.496;3.803;;;;;;
84733;SPS30;74957;48.082;17.260;2024-02-04T01:30:58;3.811;;3.388;2.695;;;;;;
84733;SPS30;74957;48.082;17.260;2024-02-04T01:35:58;2.923;;2.599;2.599;;;;;;
84733;SPS30;74957;48.082;17.260;2024-02-04T01:40:55;3.524;;3.133;2.96;;;;;;
84733;SPS30;74957;48.082;17.260;2024-02-04T01:46:00;6.183;;5.496;5.15;;;;;;
84733;SPS30;74957;48.082;17.260;2024-02-04T01:50:56;5.458;;4.852;4.333;;;;;;
84733;SPS30;74957;48.082;17.260;2024-02-04T01:55:51;3.687;;3.278;3.105;;;;;;
84733;SPS30;74957;48.082;17.260;2024-02-04T02:00:58;5.469;;4.862;4.862;;;;;;
84733;SPS30;74957;48.082;17.260;2024-02-04T02:05:52;3.746;;3.33;2.984;;;;;;
84733;SPS30;74957;48.082;17.260;2024-02-04T02:10:55;4.992;;4.438;4.092;;;;;;
84733;SPS30;74957;48.082;17.260;2024-02-04T02:15:56;6.823;;6.065;5.199;;;;;;
84733;SPS30;74957;48.082;17.260;2024-02-04T02:21:03;5.751;;5.112;4.766;;;;;;
84733;SPS30;74957;48.082;17.260;2024-02-04T02:25:54;3.838;;3.412;2.719;;;;;;
84733;SPS30;74957;48.082;17.260;2024-02-04T02:30:50;4.781;;4.25;3.731;;;;;;
84733;SPS30;74957;48.082;17.260;2024-02-04T02:36:00;2.517;;2.238;2.238;;;;;;
84733;SPS30;74957;48.082;17.260;2024-02-04T02:40:58;4.342;;3.86;3.514;;;;;;
84733;SPS30;74957;48.082;17.260;2024-02-04T02:46:00;4.608;;4.096;3.923;;;;;;
84733;SPS30;74957;48.082;17.260;2024-02-04T02:50:53;3.903;;3.47;3.297;;;;;;
84733;SPS30;74957;48.082;17.260;2024-02-04T02:55:57;5.393;;4.794;4.621;;;;;;
84733;SPS30;74957;48.082;17.260;2024-02-04T03:00:53;3.574;;3.177;3.177;;;;;;
84733;SPS30;74957;48.082;17.260;2024-02-04T03:05:54;5.122;;4.553;4.38;;;;;;
84733;SPS30;74957;48.082;17.260;2024-02-04T03:10:55;3.682;;3.273;3.273;;;;;;
84733;SPS30;74957;48.082;17.260;2024-02-04T03:15:54;5.491;;4.881;4.188;;;;;;
84733;SPS30;74957;48.082;17.260;2024-02-04T03:20:56;3.303;;2.936;2.936;;;;;;
84733;SPS30;74957;48.082;17.260;2024-02-04T03:25:53;3.091;;2.748;2.575;;;;;;
84733;SPS30;74957;48.082;17.260;2024-02-04T03:30:54;2.111;;1.877;1.877;;;;;;
84733;SPS30;74957;48.082;17.260;2024-02-04T03:35:57;3.395;;3.018;2.672;;;;;;
84733;SPS30;74957;48.082;17.260;2024-02-04T03:40:54;2.761;;2.455;2.455;;;;;;
84733;SPS30;74957;48.082;17.260;2024-02-04T03:45:57;4.163;;3.701;3.008;;;;;;
84733;SPS30;74957;48.082;17.260;2024-02-04T03:51:01;4.569;;4.062;3.369;;;;;;
84733;SPS30;74957;48.082;17.260;2024-02-04T03:55:56;2.608;;2.319;1.973;;;;;;
84733;SPS30;74957;48.082;17.260;2024-02-04T04:01:00;4.201;;3.735;3.562;;;;;;
84733;SPS30;74957;48.082;17.260;2024-02-04T04:05:59;3.443;;3.061;2.888;;;;;;
84733;SPS30;74957;48.082;17.260;2024-02-04T04:10:58;2.381;;2.117;2.117;;;;;;
84733;SPS30;74957;48.082;17.260;2024-02-04T04:16:01;3.682;;3.273;3.273;;;;;;
84733;SPS30;74957;48.082;17.260;2024-02-04T04:20:57;2.766;;2.459;2.286;;;;;;
84733;SPS30;74957;48.082;17.260;2024-02-04T04:26:03;3.615;;3.214;2.695;;;;;;
84733;SPS30;74957;48.082;17.260;2024-02-04T04:30:56;4.224;;3.755;3.755;;;;;;
84733;SPS30;74957;48.082;17.260;2024-02-04T04:35:59;6.459;;5.742;5.223;;;;;;
84733;SPS30;74957;48.082;17.260;2024-02-04T04:40:56;4.034;;3.586;3.586;;;;;;
84733;SPS30;74957;48.082;17.260;2024-02-04T04:46:00;3.665;;3.258;2.912;;;;;;
84733;SPS30;74957;48.082;17.260;2024-02-04T04:50:59;5.707;;5.073;4.38;;;;;;
84733;SPS30;74957;48.082;17.260;2024-02-04T04:55:56;3.908;;3.474;3.128;;;;;;
84733;SPS30;74957;48.082;17.260;2024-02-04T05:00:58;2.436;;2.166;2.166;;;;;;
84733;SPS30;74957;48.082;17.260;2024-02-04T05:05:50;3.124;;2.777;2.431;;;;;;
84733;SPS30;74957;48.082;17.260;2024-02-04T05:10:55;4.044;;3.595;3.249;;;;;;
84733;SPS30;74957;48.082;17.260;2024-02-04T05:15:52;4.25;;3.778;3.778;;;;;;
84733;SPS30;74957;48.082;17.260;2024-02-04T05:20:50;2.766;;2.459;2.286;;;;;;
84733;SPS30;74957;48.082;17.260;2024-02-04T05:25:52;2.631;;2.339;2.166;;;;;;
84733;SPS30;74957;48.082;17.260;2024-02-04T05:30:54;3.822;;3.398;3.225;;;;;;
84733;SPS30;74957;48.082;17.260;2024-02-04T05:35:55;3.465;;3.08;2.214;;;;;;
84733;SPS30;74957;48.082;17.260;2024-02-04T05:40:54;4.207;;3.74;3.394;;;;;;
84733;SPS30;74957;48.082;17.260;2024-02-04T05:45:56;3.967;;3.527;3.008;;;;;;
84733;SPS30;74957;48.082;17.260;2024-02-04T05:50:52;3.639;;3.235;2.022;;;;;;
84733;SPS30;74957;48.082;17.260;2024-02-04T05:55:53;3.01;;2.676;2.503;;;;;;
84733;SPS30;74957;48.082;17.260;2024-02-04T06:00:52;4.25;;3.778;3.778;;;;;;
84733;SPS30;74957;48.082;17.260;2024-02-04T06:05:53;2.657;;2.362;2.189;;;;;;
84733;SPS30;74957;48.082;17.260;2024-02-04T06:10:53;3.493;;3.105;3.105;;;;;;
84733;SPS30;74957;48.082;17.260;2024-02-04T06:15:54;2.896;;2.575;2.575;;;;;;
84733;SPS30;74957;48.082;17.260;2024-02-04T06:20:56;1.819;;1.617;1.444;;;;;;
84733;SPS30;74957;48.082;17.260;2024-02-04T06:25:54;4.038;;3.59;3.417;;;;;;
84733;SPS30;74957;48.082;17.260;2024-02-04T06:30:55;2.576;;2.29;2.117;;;;;;
84733;SPS30;74957;48.082;17.260;2024-02-04T06:35:56;4.131;;3.672;3.153;;;;;;
84733;SPS30;74957;48.082;17.260;2024-02-04T06:40:55;2.64;;2.347;1.828;;;;;;
84733;SPS30;74957;48.082;17.260;2024-02-04T06:45:59;1.461;;1.299;1.299;;;;;;
84733;SPS30;74957;48.082;17.260;2024-02-04T06:50:56;3.193;;2.839;2.839;;;;;;
84733;SPS30;74957;48.082;17.260;2024-02-04T06:55:56;3.737;;3.322;3.322;;;;;;
84733;SPS30;74957;48.082;17.260;2024-02-04T07:01:33;1.299;;1.155;1.155;;;;;;
84733;SPS30;74957;48.082;17.260;2024-02-04T07:05:56;1.786;;1.588;1.588;;;;;;
84733;SPS30;74957;48.082;17.260;2024-02-04T07:10:53;2.49;;2.214;2.214;;;;;;
84733;SPS30;74957;48.082;17.260;2024-02-04T07:15:54;1.759;;1.564;1.564;;;;;;
84733;SPS30;74957;48.082;17.260;2024-02-04T07:21:01;1.569;;1.395;1.395;;;;;;
84733;SPS30;74957;48.082;17.260;2024-02-04T07:26:04;1.921;;1.708;1.708;;;;;;
84733;SPS30;74957;48.082;17.260;2024-02-04T07:31:04;1.791;;1.592;1.419;;;;;;
84733;SPS30;74957;48.082;17.260;2024-02-04T07:36:06;1.299;;1.155;1.155;;;;;;
84733;SPS30;74957;48.082;17.260;2024-02-04T07:41:01;1.867;;1.66;1.66;;;;;;
84733;SPS30;74957;48.082;17.260;2024-02-04T07:46:02;1.109;;0.986;0.986;;;;;;
84733;SPS30;74957;48.082;17.260;2024-02-04T07:51:02;1.272;;1.131;1.131;;;;;;
84733;SPS30;74957;48.082;17.260;2024-02-04T07:56:03;0.812;;0.722;0.722;;;;;;
84733;SPS30;74957;48.082;17.260;2024-02-04T08:01:02;1.434;;1.275;1.275;;;;;;
84733;SPS30;74957;48.082;17.260;2024-02-04T08:06:01;2.116;;1.881;1.708;;;;;;
84733;SPS30;74957;48.082;17.260;2024-02-04T08:11:02;1.299;;1.155;1.155;;;;;;
84733;SPS30;74957;48.082;17.260;2024-02-04T08:16:02;2.165;;1.925;1.925;;;;;;
84733;SPS30;74957;48.082;17.260;2024-02-04T08:21:04;1.494;;1.328;1.155;;;;;;
84733;SPS30;74957;48.082;17.260;2024-02-04T08:26:04;2.445;;2.174;1.828;;;;;;
84733;SPS30;74957;48.082;17.260;2024-02-04T08:31:02;2.137;;1.9;1.9;;;;;;
84733;SPS30;74957;48.082;17.260;2024-02-04T08:36:03;1.786;;1.588;1.588;;;;;;
84733;SPS30;74957;48.082;17.260;2024-02-04T08:41:00;1.856;;1.65;1.131;;;;;;
84733;SPS30;74957;48.082;17.260;2024-02-04T08:46:07;0.649;;0.577;0.577;;;;;;
84733;SPS30;74957;48.082;17.260;2024-02-04T08:50:57;1.299;;1.155;1.155;;;;;;
84733;SPS30;74957;48.082;17.260;2024-02-04T08:55:59;1.624;;1.444;1.444;;;;;;
84733;SPS30;74957;48.082;17.260;2024-02-04T09:00:59;1.515;;1.347;1.347;;;;;;
84733;SPS30;74957;48.082;17.260;2024-02-04T09:05:58;1.201;;1.068;0.722;;;;;;
84733;SPS30;74957;48.082;17.260;2024-02-04T09:10:57;0.974;;0.866;0.866;;;;;;
84733;SPS30;74957;48.082;17.260;2024-02-04T09:16:00;1.006;;0.895;0.722;;;;;;
84733;SPS30;74957;48.082;17.260;2024-02-04T09:20:57;0.974;;0.866;0.866;;;;;;
84733;SPS30;74957;48.082;17.260;2024-02-04T09:26:00;1.332;;1.184;1.011;;;;;;
84733;SPS30;74957;48.082;17.260;2024-02-04T09:30:55;1.109;;0.986;0.986;;;;;;
84733;SPS30;74957;48.082;17.260;2024-02-04T09:36:00;1.494;;1.328;1.155;;;;;;
84733;SPS30;74957;48.082;17.260;2024-02-04T09:41:01;1.272;;1.131;1.131;;;;;;
84733;SPS30;74957;48.082;17.260;2024-02-04T09:45:57;0.487;;0.433;0.433;;;;;;
84733;SPS30;74957;48.082;17.260;2024-02-04T09:50:57;1.168;;1.039;0.866;;;;;;
84733;SPS30;74957;48.082;17.260;2024-02-04T09:55:59;0.649;;0.577;0.577;;;;;;
84733;SPS30;74957;48.082;17.260;2024-02-04T10:00:56;0.487;;0.433;0.433;;;;;;
84733;SPS30;74957;48.082;17.260;2024-02-04T10:06:00;0.812;;0.722;0.722;;;;;;
84733;SPS30;74957;48.082;17.260;2024-02-04T10:10:58;0.162;;0.144;0.144;;;;;;
84733;SPS30;74957;48.082;17.260;2024-02-04T10:15:57;1.168;;1.039;0.866;;;;;;
84733;SPS30;74957;48.082;17.260;2024-02-04T10:21:00;0.745;;0.663;0.144;;;;;;
84733;SPS30;74957;48.082;17.260;2024-02-04T10:25:59;0.487;;0.433;0.433;;;;;;
84733;SPS30;74957;48.082;17.260;2024-02-04T10:31:00;1.006;;0.895;0.722;;;;;;
84733;SPS30;74957;48.082;17.260;2024-02-04T10:35:59;0.487;;0.433;0.433;;;;;;
84733;SPS30;74957;48.082;17.260;2024-02-04T10:40:54;0.487;;0.433;0.433;;;;;;
84733;SPS30;74957;48.082;17.260;2024-02-04T10:46:09;0.0;;0.0;0.0;;;;;;
84733;SPS30;74957;48.082;17.260;2024-02-04T10:50:57;0.649;;0.577;0.577;;;;;;
84733;SPS30;74957;48.082;17.260;2024-02-04T10:56:02;0.162;;0.144;0.144;;;;;;
84733;SPS30;74957;48.082;17.260;2024-02-04T11:01:00;1.109;;0.986;0.986;;;;;;
84733;SPS30;74957;48.082;17.260;2024-02-04T11:06:08;1.137;;1.011;1.011;;;;;;
84733;SPS30;74957;48.082;17.260;2024-02-04T11:11:06;0.649;;0.577;0.577;;;;;;
84733;SPS30;74957;48.082;17.260;2024-02-04T11:16:04;0.649;;0.577;0.577;;;;;;
84733;SPS30;74957;48.082;17.260;2024-02-04T11:21:10;1.276;;1.135;0.962;;;;;;
84733;SPS30;74957;48.082;17.260;2024-02-04T11:26:02;0.324;;0.288;0.288;;;;;;
84733;SPS30;74957;48.082;17.260;2024-02-04T11:31:02;0.622;;0.553;0.553;;;;;;
84733;SPS30;74957;48.082;17.260;2024-02-04T11:36:03;0.0;;0.0;0.0;;;;;;
84733;SPS30;74957;48.082;17.260;2024-02-04T11:41:02;0.162;;0.144;0.144;;;;;;
84733;SPS30;74957;48.082;17.260;2024-02-04T11:46:02;1.109;;0.986;0.986;;;;;;
84733;SPS30;74957;48.082;17.260;2024-02-04T11:51:04;0.487;;0.433;0.433;;;;;;
84733;SPS30;74957;48.082;17.260;2024-02-04T11:56:00;0.459;;0.408;0.408;;;;;;
84733;SPS30;74957;48.082;17.260;2024-02-04T12:01:00;0.162;;0.144;0.144;;;;;;
84733;SPS30;74957;48.082;17.260;2024-02-04T12:06:03;0.978;;0.87;0.697;;;;;;
84733;SPS30;74957;48.082;17.260;2024-02-04T12:11:02;0.0;;0.0;0.0;;;;;;
84733;SPS30;74957;48.082;17.260;2024-02-04T12:15:58;0.487;;0.433;0.433;;;;;;
84733;SPS30;74957;48.082;17.260;2024-02-04T12:20:56;0.162;;0.144;0.144;;;;;;
84733;SPS30;74957;48.082;17.260;2024-02-04T12:25:55;0.812;;0.722;0.722;;;;;;
84733;SPS30;74957;48.082;17.260;2024-02-04T12:30:57;1.656;;1.472;1.299;;;;;;
84733;SPS30;74957;48.082;17.260;2024-02-04T12:35:58;0.194;;0.173;0.0;;;;;;
84733;SPS30;74957;48.082;17.260;2024-02-04T12:41:01;0.812;;0.722;0.722;;;;;;
84733;SPS30;74957;48.082;17.260;2024-02-04T12:46:09;0.0;;0.0;0.0;;;;;;
84733;SPS30;74957;48.082;17.260;2024-02-04T12:51:00;1.082;;0.962;0.962;;;;;;
84733;SPS30;74957;48.082;17.260;2024-02-04T12:55:57;0.649;;0.577;0.577;;;;;;
84733;SPS30;74957;48.082;17.260;2024-02-04T13:00:59;0.487;;0.433;0.433;;;;;;
84733;SPS30;74957;48.082;17.260;2024-02-04T13:05:57;0.974;;0.866;0.866;;;;;;
84733;SPS30;74957;48.082;17.260;2024-02-04T13:10:56;0.297;;0.264;0.264;;;;;;
84733;SPS30;74957;48.082;17.260;2024-02-04T13:15:58;1.137;;1.011;1.011;;;;;;
84733;SPS30;74957;48.082;17.260;2024-02-04T13:20:56;0.324;;0.288;0.288;;;;;;
84733;SPS30;74957;48.082;17.260;2024-02-04T13:25:57;1.168;;0.577;0.577;;;;;;
84733;SPS30;74957;48.082;17.260;2024-02-04T13:30:58;1.137;;1.011;1.011;;;;;;
84733;SPS30;74957;48.082;17.260;2024-02-04T13:35:58;0.297;;0.264;0.264;;;;;;
84733;SPS30;74957;48.082;17.260;2024-02-04T13:40:56;0.324;;0.288;0.288;;;;;;
84733;SPS30;74957;48.082;17.260;2024-02-04T13:46:09;0.0;;0.0;0.0;;;;;;
84733;SPS30;74957;48.082;17.260;2024-02-04T13:50:56;0.324;;0.288;0.288;;;;;;
84733;SPS30;74957;48.082;17.260;2024-02-04T13:55:55;0.324;;0.288;0.288;;;;;;
84733;SPS30;74957;48.082;17.260;2024-02-04T14:01:01;0.324;;0.288;0.288;;;;;;
84733;SPS30;74957;48.082;17.260;2024-02-04T14:05:55;0.649;;0.577;0.577;;;;;;
84733;SPS30;74957;48.082;17.260;2024-02-04T14:10:58;0.649;;0.577;0.577;;;;;;
84733;SPS30;74957;48.082;17.260;2024-02-04T14:15:59;0.974;;0.866;0.866;;;;;;
84733;SPS30;74957;48.082;17.260;2024-02-04T14:20:55;0.816;;0.726;0.553;;;;;;
84733;SPS30;74957;48.082;17.260;2024-02-04T14:25:57;1.461;;1.299;1.299;;;;;;
84733;SPS30;74957;48.082;17.260;2024-02-04T14:31:03;0.649;;0.577;0.577;;;;;;
84733;SPS30;74957;48.082;17.260;2024-02-04T14:36:02;1.823;;1.621;1.275;;;;;;
84733;SPS30;74957;48.082;17.260;2024-02-04T14:41:05;1.434;;1.275;1.275;;;;;;
84733;SPS30;74957;48.082;17.260;2024-02-04T14:46:02;0.487;;0.433;0.433;;;;;;
84733;SPS30;74957;48.082;17.260;2024-02-04T14:51:02;1.303;;1.159;0.986;;;;;;
84733;SPS30;74957;48.082;17.260;2024-02-04T14:56:03;1.109;;0.986;0.986;;;;;;
84733;SPS30;74957;48.082;17.260;2024-02-04T15:01:15;1.786;;1.588;1.588;;;;;;
84733;SPS30;74957;48.082;17.260;2024-02-04T15:06:02;0.622;;0.553;0.553;;;;;;
84733;SPS30;74957;48.082;17.260;2024-02-04T15:11:03;1.413;;1.256;1.083;;;;;;
84733;SPS30;74957;48.082;17.260;2024-02-04T15:16:05;1.786;;1.588;1.588;;;;;;
84733;SPS30;74957;48.082;17.260;2024-02-04T15:21:02;1.949;;1.733;1.733;;;;;;
84733;SPS30;74957;48.082;17.260;2024-02-04T15:26:05;1.791;;1.592;1.419;;;;;;
84733;SPS30;74957;48.082;17.260;2024-02-04T15:31:03;1.894;;1.684;1.684;;;;;;
84733;SPS30;74957;48.082;17.260;2024-02-04T15:36:03;0.974;;0.866;0.866;;;;;;
84733;SPS30;74957;48.082;17.260;2024-02-04T15:41:00;3.031;;2.695;2.695;;;;;;
84733;SPS30;74957;48.082;17.260;2024-02-04T15:46:01;0.487;;0.433;0.433;;;;;;
84733;SPS30;74957;48.082;17.260;2024-02-04T15:51:00;2.202;;1.958;1.612;;;;;;
84733;SPS30;74957;48.082;17.260;2024-02-04T15:56:04;1.786;;1.588;1.588;;;;;;
84733;SPS30;74957;48.082;17.260;2024-02-04T16:01:08;1.921;;1.708;1.708;;;;;;
84733;SPS30;74957;48.082;17.260;2024-02-04T16:06:01;2.977;;2.647;2.647;;;;;;
84733;SPS30;74957;48.082;17.260;2024-02-04T16:10:58;1.299;;1.155;1.155;;;;;;
84733;SPS30;74957;48.082;17.260;2024-02-04T16:16:02;1.569;;1.395;1.395;;;;;;
84733;SPS30;74957;48.082;17.260;2024-02-04T16:20:51;0.812;;0.722;0.722;;;;;;
84733;SPS30;74957;48.082;17.260;2024-02-04T16:25:51;0.947;;0.842;0.842;;;;;;
84733;SPS30;74957;48.082;17.260;2024-02-04T16:30:57;1.949;;1.733;1.733;;;;;;
84733;SPS30;74957;48.082;17.260;2024-02-04T16:35:54;0.518;;0.461;0.288;;;;;;
84733;SPS30;74957;48.082;17.260;2024-02-04T16:40:52;1.926;;1.712;1.539;;;;;;
84733;SPS30;74957;48.082;17.260;2024-02-04T16:45:55;1.786;;1.588;1.588;;;;;;
84733;SPS30;74957;48.082;17.260;2024-02-04T16:50:50;1.494;;1.328;1.155;;;;;;
84733;SPS30;74957;48.082;17.260;2024-02-04T16:55:51;1.299;;1.155;1.155;;;;;;
84733;SPS30;74957;48.082;17.260;2024-02-04T17:00:54;0.194;;0.173;0.0;;;;;;
84733;SPS30;74957;48.082;17.260;2024-02-04T17:05:54;1.006;;0.895;0.722;;;;;;
84733;SPS30;74957;48.082;17.260;2024-02-04T17:10:51;1.303;;1.159;0.986;;;;;;
84733;SPS30;74957;48.082;17.260;2024-02-04T17:15:56;2.062;;1.833;1.66;;;;;;
84733;SPS30;74957;48.082;17.260;2024-02-04T17:20:51;1.949;;1.733;1.733;;;;;;
84733;SPS30;74957;48.082;17.260;2024-02-04T17:25:57;0.649;;0.577;0.577;;;;;;
84733;SPS30;74957;48.082;17.260;2024-02-04T17:30:50;0.812;;0.722;0.722;;;;;;
84733;SPS30;74957;48.082;17.260;2024-02-04T17:35:54;0.487;;0.433;0.433;;;;;;
84733;SPS30;74957;48.082;17.260;2024-02-04T17:40:50;1.867;;1.66;1.66;;;;;;
84733;SPS30;74957;48.082;17.260;2024-02-04T17:46:05;1.299;;1.155;1.155;;;;;;
84733;SPS30;74957;48.082;17.260;2024-02-04T17:50:54;0.843;;0.75;0.577;;;;;;
84733;SPS30;74957;48.082;17.260;2024-02-04T17:55:51;1.656;;1.472;1.299;;;;;;
84733;SPS30;74957;48.082;17.260;2024-02-04T18:00:55;1.461;;1.299;1.299;;;;;;
84733;SPS30;74957;48.082;17.260;2024-02-04T18:06:00;1.272;;1.131;1.131;;;;;;
84733;SPS30;74957;48.082;17.260;2024-02-04T18:10:59;1.299;;1.155;1.155;;;;;;
84733;SPS30;74957;48.082;17.260;2024-02-04T18:16:04;0.487;;0.433;0.433;;;;;;
84733;SPS30;74957;48.082;17.260;2024-02-04T18:20:58;0.487;;0.433;0.433;;;;;;
84733;SPS30;74957;48.082;17.260;2024-02-04T18:26:01;1.137;;1.011;1.011;;;;;;
84733;SPS30;74957;48.082;17.260;2024-02-04T18:30:59;2.332;;2.073;1.9;;;;;;
84733;SPS30;74957;48.082;17.260;2024-02-04T18:35:57;1.494;;1.328;1.155;;;;;;
84733;SPS30;74957;48.082;17.260;2024-02-04T18:40:58;1.168;;1.039;0.866;;;;;;
84733;SPS30;74957;48.082;17.260;2024-02-04T18:46:02;1.494;;1.328;1.155;;;;;;
84733;SPS30;74957;48.082;17.260;2024-02-04T18:50:54;2.664;;2.368;2.022;;;;;;
84733;SPS30;74957;48.082;17.260;2024-02-04T18:55:58;1.981;;1.761;1.588;;;;;;
84733;SPS30;74957;48.082;17.260;2024-02-04T19:01:13;0.487;;0.433;0.433;;;;;;
84733;SPS30;74957;48.082;17.260;2024-02-04T19:06:01;0.487;;0.433;0.433;;;;;;
84733;SPS30;74957;48.082;17.260;2024-02-04T19:11:02;1.137;;1.011;1.011;;;;;;
84733;SPS30;74957;48.082;17.260;2024-02-04T19:16:03;1.082;;0.962;0.962;;;;;;
84733;SPS30;74957;48.082;17.260;2024-02-04T19:21:02;2.956;;2.628;2.455;;;;;;
84733;SPS30;74957;48.082;17.260;2024-02-04T19:25:58;3.709;;3.297;3.297;;;;;;
84733;SPS30;74957;48.082;17.260;2024-02-04T19:30:57;1.624;;1.444;1.444;;;;;;
84733;SPS30;74957;48.082;17.260;2024-02-04T19:35:52;1.494;;1.328;1.155;;;;;;
84733;SPS30;74957;48.082;17.260;2024-02-04T19:40:55;1.759;;1.564;1.564;;;;;;
84733;SPS30;74957;48.082;17.260;2024-02-04T19:45:53;1.596;;1.419;1.419;;;;;;
84733;SPS30;74957;48.082;17.260;2024-02-04T19:50:53;0.812;;0.722;0.722;;;;;;
84733;SPS30;74957;48.082;17.260;2024-02-04T19:55:52;1.494;;1.328;1.155;;;;;;
84733;SPS30;74957;48.082;17.260;2024-02-04T20:00:56;0.843;;0.75;0.577;;;;;;
84733;SPS30;74957;48.082;17.260;2024-02-04T20:05:52;0.812;;0.722;0.722;;;;;;
84733;SPS30;74957;48.082;17.260;2024-02-04T20:10:53;0.649;;0.577;0.577;;;;;;
84733;SPS30;74957;48.082;17.260;2024-02-04T20:15:56;0.518;;0.461;0.288;;;;;;
84733;SPS30;74957;48.082;17.260;2024-02-04T20:20:55;1.949;;1.733;1.733;;;;;;
84733;SPS30;74957;48.082;17.260;2024-02-04T20:25:51;0.518;;0.461;0.288;;;;;;
84733;SPS30;74957;48.082;17.260;2024-02-04T20:30:51;0.649;;0.577;0.577;;;;;;
84733;SPS30;74957;48.082;17.260;2024-02-04T20:35:52;1.948;;1.732;0.866;;;;;;
84733;SPS30;74957;48.082;17.260;2024-02-04T20:40:51;1.985;;1.765;1.419;;;;;;
84733;SPS30;74957;48.082;17.260;2024-02-04T20:45:53;0.876;;0.779;0.433;;;;;;
84733;SPS30;74957;48.082;17.260;2024-02-04T20:50:53;1.921;;1.708;1.708;;;;;;
84733;SPS30;74957;48.082;17.260;2024-02-04T20:55:57;1.434;;1.275;1.275;;;;;;
84733;SPS30;74957;48.082;17.260;2024-02-04T21:00:52;1.332;;1.184;1.011;;;;;;
84733;SPS30;74957;48.082;17.260;2024-02-04T21:05:56;1.137;;1.011;1.011;;;;;;
84733;SPS30;74957;48.082;17.260;2024-02-04T21:10:52;1.137;;1.011;1.011;;;;;;
84733;SPS30;74957;48.082;17.260;2024-02-04T21:15:51;0.812;;0.722;0.722;;;;;;
84733;SPS30;74957;48.082;17.260;2024-02-04T21:20:51;0.649;;0.577;0.577;;;;;;
84733;SPS30;74957;48.082;17.260;2024-02-04T21:25:50;0.974;;0.866;0.866;;;;;;
84733;SPS30;74957;48.082;17.260;2024-02-04T21:31:04;2.896;;2.575;2.575;;;;;;
84733;SPS30;74957;48.082;17.260;2024-02-04T21:36:02;1.006;;0.895;0.722;;;;;;
84733;SPS30;74957;48.082;17.260;2024-02-04T21:40:59;0.649;;0.577;0.577;;;;;;
84733;SPS30;74957;48.082;17.260;2024-02-04T21:45:58;0.812;;0.722;0.722;;;;;;
84733;SPS30;74957;48.082;17.260;2024-02-04T21:50:59;1.705;;1.516;1.516;;;;;;
84733;SPS30;74957;48.082;17.260;2024-02-04T21:56:00;1.828;;1.625;1.106;;;;;;
84733;SPS30;74957;48.082;17.260;2024-02-04T22:00:59;2.246;;1.997;1.997;;;;;;
84733;SPS30;74957;48.082;17.260;2024-02-04T22:05:59;0.459;;0.408;0.408;;;;;;
84733;SPS30;74957;48.082;17.260;2024-02-04T22:10:59;2.441;;2.17;1.997;;;;;;
84733;SPS30;74957;48.082;17.260;2024-02-04T22:16:01;1.299;;1.155;1.155;;;;;;
84733;SPS30;74957;48.082;17.260;2024-02-04T22:21:03;1.569;;1.395;1.395;;;;;;
84733;SPS30;74957;48.082;17.260;2024-02-04T22:26:00;1.137;;1.011;1.011;;;;;;
84733;SPS30;74957;48.082;17.260;2024-02-04T22:31:01;2.5;;2.223;1.877;;;;;;
84733;SPS30;74957;48.082;17.260;2024-02-04T22:35:59;2.83;;2.516;1.997;;;;;;
84733;SPS30;74957;48.082;17.260;2024-02-04T22:41:00;1.006;;0.895;0.722;;;;;;
84733;SPS30;74957;48.082;17.260;2024-02-04T22:45:58;1.299;;1.155;1.155;;;;;;
84733;SPS30;74957;48.082;17.260;2024-02-04T22:50:57;0.974;;0.866;0.866;;;;;;
84733;SPS30;74957;48.082;17.260;2024-02-04T22:55:56;1.137;;1.011;1.011;;;;;;
84733;SPS30;74957;48.082;17.260;2024-02-04T23:01:16;1.272;;1.131;1.131;;;;;;
84733;SPS30;74957;48.082;17.260;2024-02-04T23:05:59;1.461;;1.299;1.299;;;;;;
84733;SPS30;74957;48.082;17.260;2024-02-04T23:10:58;1.434;;1.275;1.275;;;;;;
84733;SPS30;74957;48.082;17.260;2024-02-04T23:15:56;0.812;;0.722;0.722;;;;;;
84733;SPS30;74957;48.082;17.260;2024-02-04T23:20:50;1.688;;1.501;1.155;;;;;;
84733;SPS30;74957;48.082;17.260;2024-02-04T23:25:53;0.947;;0.842;0.842;;;;;;
84733;SPS30;74957;48.082;17.260;2024-02-04T23:30:51;2.391;;2.126;1.78;;;;;;
84733;SPS30;74957;48.082;17.260;2024-02-04T23:35:51;1.272;;1.131;1.131;;;;;;
84733;SPS30;74957;48.082;17.260;2024-02-04T23:40:53;1.629;;1.448;1.275;;;;;;
84733;SPS30;74957;48.082;17.260;2024-02-04T23:45:53;1.823;;1.621;1.275;;;;;;
84733;SPS30;74957;48.082;17.260;2024-02-04T23:50:54;1.109;;0.986;0.986;;;;;;
84733;SPS30;74957;48.082;17.260;2024-02-04T23:55:57;0.843;;0.75;0.577;;;;;;
